Aviation Digital Data Service (ADDS)

Output produced by METARs form (0708 UTC 23 November 2014)
found at http://aviationweather.gov/adds/metars/
 
KAEX 230521Z 2306/2406 13010KT 4SM RA BR OVC013 
     TEMPO 2308/2312 1SM TSRA BKN005CB 
     FM231200 18006KT 3SM -RA BR BKN005 
     FM231600 22012KT P6SM SCT015